Airfield :
LOGIN :

Register | Disclaimer

   EN    FR    IT 

 










Legend :    VFR   Marginal VFR   IFR   Intensive IFR   Very Intensive IFR
Visi :
Ceiling :
>= 8 km
>= 3000ft
5 to 8 km
1000 to 3000 ft
1500m to 5 km
500 to 1000 ft
800 to 1500m
200 to 500 ft
< 800m
< 200 ft
Symbols :   Thunderstorms  Fog  Heavy snow  Heavy precipitations  Wind > 20 kt
SIGMETs :     Misc.  Thunderstorms  Icing  Turbulence  Mountain Waves  Volcanic Ashes






- Airport Elevation : 117 ft
- IATA code : NWI


EGSH - Norwich

CURRENT METAR :
  • 192050Z AUTO 16011KT 130V190 9999 NCD 12/08 Q1010 NOSIG

EXPIRED METARs :
  • 192020Z AUTO 16011KT 9999 NCD 12/08 Q1010
  • 191950Z AUTO 16010KT 120V190 9999 NCD 12/08 Q1011 NOSIG
  • 191920Z AUTO 16010KT 9999 NCD 12/08 Q1011 NOSIG
  • 191850Z AUTO 16008KT 9999 NCD 12/08 Q1011 NOSIG
  • 191820Z AUTO 16008KT 140V200 9999 NCD 12/08 Q1012 NOSIG
  • 191750Z AUTO 17010KT 140V200 9999 NCD 12/08 Q1012

TAF TAF EGSH
Valid from the 19 at 21:00 until the 20 at 00:00 UTC


191955Z 1921/1924 16010KT 9999 FEW035
ATIS : +44 1603 420 640



MET'MAP, your aeronautical weather chart ! - Copyright ORBIFLY December 2007 - Disclaimer

ORBIFLY MET'MAP TEAM :

Programming & Development : Alexandra Zaïnal
Concept & original design : Baudouin d'Aumeries
Assistance for programming : Marc-Olivier Méhu
Technical & hardware support : Manuel Goepfert

Contact : metmap@orbifly.com




SOURCES & CREDITS :

   NOAA